createdAt,value
2023-04-27T00:00:36.363Z,101060.69
2023-04-27T00:03:16.504Z,101054.25
2023-04-27T00:05:43.445Z,101058.09
2023-04-27T00:08:09.625Z,101062.00
2023-04-27T00:10:36.049Z,101055.00
2023-04-27T00:13:02.190Z,101047.69
2023-04-27T00:15:28.683Z,101054.31
2023-04-27T00:17:55.118Z,101045.44
2023-04-27T00:20:21.580Z,101050.13
2023-04-27T00:22:47.695Z,101043.38
2023-04-27T00:25:14.115Z,101053.66
2023-04-27T00:27:40.531Z,101052.34
2023-04-27T00:30:07.616Z,101050.69
2023-04-27T00:32:33.711Z,101058.19
2023-04-27T00:35:00.252Z,101043.91
2023-04-27T00:37:26.358Z,101054.88
2023-04-27T00:39:52.740Z,101055.91
2023-04-27T00:42:19.081Z,101061.81
2023-04-27T00:44:46.687Z,101060.44
2023-04-27T00:47:13.453Z,101059.38
2023-04-27T00:49:40.331Z,101069.69
2023-04-27T00:52:06.807Z,101068.94
2023-04-27T00:54:33.499Z,101063.56
2023-04-27T00:56:59.896Z,101063.13
2023-04-27T00:59:26.230Z,101059.34
2023-04-27T01:01:54.342Z,101068.78
2023-04-27T01:04:21.135Z,101063.28
2023-04-27T01:06:47.266Z,101059.75
2023-04-27T01:09:14.077Z,101062.97
2023-04-27T01:11:40.411Z,101068.13
2023-04-27T01:14:07.296Z,101060.38
2023-04-27T01:16:34.628Z,101061.69
2023-04-27T01:19:02.114Z,101058.78
2023-04-27T01:21:28.249Z,101052.09
2023-04-27T01:23:54.757Z,101065.09
2023-04-27T01:26:21.741Z,101057.06
2023-04-27T01:28:48.533Z,101067.94
2023-04-27T01:31:14.799Z,101061.59
2023-04-27T01:33:41.789Z,101063.66
2023-04-27T01:36:08.827Z,101062.81
2023-04-27T01:38:35.650Z,101066.56
2023-04-27T01:41:04.059Z,101071.19
2023-04-27T01:43:31.452Z,101071.94
2023-04-27T01:46:06.983Z,101075.38
2023-04-27T01:48:34.268Z,101075.16
2023-04-27T01:51:00.357Z,101074.28
2023-04-27T01:53:27.039Z,101080.31
2023-04-27T01:55:53.553Z,101084.47
2023-04-27T01:58:20.151Z,101081.78
2023-04-27T02:00:47.662Z,101079.06
2023-04-27T02:03:14.287Z,101082.50
2023-04-27T02:05:41.035Z,101082.16
2023-04-27T02:08:07.414Z,101086.34
2023-04-27T02:10:35.039Z,101078.06
2023-04-27T02:13:01.841Z,101089.22
2023-04-27T02:15:27.990Z,101086.41
2023-04-27T02:17:54.837Z,101082.13
2023-04-27T02:20:20.961Z,101082.41
2023-04-27T02:22:47.670Z,101093.56
2023-04-27T02:25:14.693Z,101096.59
2023-04-27T02:27:42.854Z,101094.00
2023-04-27T02:30:11.024Z,101100.19
2023-04-27T02:32:38.202Z,101089.38
2023-04-27T02:35:04.793Z,101086.81
2023-04-27T02:37:31.171Z,101094.25
2023-04-27T02:39:57.291Z,101091.66
2023-04-27T02:42:23.728Z,101094.34
2023-04-27T02:44:49.881Z,101094.75
2023-04-27T02:47:16.411Z,101092.06
2023-04-27T02:49:42.694Z,101101.56
2023-04-27T02:52:09.424Z,101093.47
2023-04-27T02:54:35.502Z,101101.00
2023-04-27T02:57:01.955Z,101095.84
2023-04-27T02:59:28.081Z,101102.19
2023-04-27T03:01:54.440Z,101110.03
2023-04-27T03:04:20.707Z,101109.06
2023-04-27T03:06:48.288Z,101103.91
2023-04-27T03:09:15.068Z,101109.72
2023-04-27T03:11:41.904Z,101108.09
2023-04-27T03:14:07.994Z,101108.50
2023-04-27T03:16:34.863Z,101110.13
2023-04-27T03:19:01.095Z,101113.03
2023-04-27T03:21:27.903Z,101115.63
2023-04-27T03:23:54.105Z,101120.78
2023-04-27T03:26:23.095Z,101123.34
2023-04-27T03:28:49.165Z,101123.84
2023-04-27T03:31:15.537Z,101123.38
2023-04-27T03:33:41.790Z,101128.84
2023-04-27T03:36:09.858Z,101125.31
2023-04-27T03:38:36.413Z,101126.06
2023-04-27T03:41:03.797Z,101128.00
2023-04-27T03:43:29.927Z,101129.09
2023-04-27T03:45:56.641Z,101126.31
2023-04-27T03:48:22.987Z,101127.16
2023-04-27T03:50:51.660Z,101133.63
2023-04-27T03:53:17.851Z,101130.47
2023-04-27T03:55:44.612Z,101139.06
2023-04-27T03:58:11.701Z,101135.75
2023-04-27T04:00:48.859Z,101137.69
2023-04-27T04:03:15.284Z,101138.09
2023-04-27T04:05:41.960Z,101153.13
2023-04-27T04:08:08.432Z,101150.25
2023-04-27T04:10:34.828Z,101153.56
2023-04-27T04:13:00.913Z,101157.75
2023-04-27T04:15:27.382Z,101152.78
2023-04-27T04:17:53.615Z,101158.28
2023-04-27T04:20:20.842Z,101160.78
2023-04-27T04:22:47.406Z,101163.78
2023-04-27T04:25:13.983Z,101163.19
2023-04-27T04:27:41.134Z,101167.78
2023-04-27T04:30:07.968Z,101172.06
2023-04-27T04:32:38.539Z,101177.84
2023-04-27T04:35:06.401Z,101171.84
2023-04-27T04:37:34.765Z,101178.59
2023-04-27T04:40:08.129Z,101173.00
2023-04-27T04:42:36.737Z,101173.13
2023-04-27T04:45:03.752Z,101178.78
2023-04-27T04:47:33.479Z,101176.47
2023-04-27T04:50:00.436Z,101178.69
2023-04-27T04:52:29.737Z,101181.75
2023-04-27T04:54:56.524Z,101179.69
2023-04-27T04:57:22.730Z,101182.16
2023-04-27T04:59:49.334Z,101186.47
2023-04-27T05:02:15.601Z,101189.53
2023-04-27T05:04:42.530Z,101180.81
2023-04-27T05:07:11.949Z,101183.50
2023-04-27T05:09:40.288Z,101184.00
2023-04-27T05:12:06.682Z,101189.38
2023-04-27T05:14:33.321Z,101196.84
2023-04-27T05:16:59.703Z,101199.19
2023-04-27T05:19:28.686Z,101199.03
2023-04-27T05:21:54.793Z,101193.97
2023-04-27T05:24:21.488Z,101202.56
2023-04-27T05:26:47.846Z,101204.75
2023-04-27T05:29:14.693Z,101208.78
2023-04-27T05:31:41.277Z,101209.03
2023-04-27T05:34:09.319Z,101216.03
2023-04-27T05:36:36.007Z,101216.38
2023-04-27T05:39:02.954Z,101220.03
2023-04-27T05:41:30.065Z,101223.72
2023-04-27T05:43:56.462Z,101223.50
2023-04-27T05:46:22.655Z,101224.47
2023-04-27T05:48:49.311Z,101221.84
2023-04-27T05:51:15.932Z,101241.63
2023-04-27T05:53:42.380Z,101233.25
2023-04-27T05:56:10.931Z,101232.94
2023-04-27T05:58:37.346Z,101239.19
2023-04-27T06:01:03.566Z,101239.34
2023-04-27T06:03:30.655Z,101241.25
2023-04-27T06:05:59.153Z,101238.50
2023-04-27T06:08:26.654Z,101238.69
2023-04-27T06:10:53.702Z,101237.19
2023-04-27T06:13:20.345Z,101237.66
2023-04-27T06:15:46.932Z,101243.25
2023-04-27T06:18:13.812Z,101237.00
2023-04-27T06:20:41.305Z,101232.38
2023-04-27T06:23:08.202Z,101234.72
2023-04-27T06:25:36.746Z,101235.13
2023-04-27T06:28:03.481Z,101235.44
2023-04-27T06:30:29.537Z,101225.75
2023-04-27T06:32:55.882Z,101227.41
2023-04-27T06:35:22.074Z,101230.53
2023-04-27T06:37:48.457Z,101224.34
2023-04-27T06:40:14.846Z,101225.38
2023-04-27T06:42:41.366Z,101227.94
2023-04-27T06:45:08.636Z,101224.22
2023-04-27T06:47:35.107Z,101229.38
2023-04-27T06:50:01.421Z,101228.94
2023-04-27T06:52:27.772Z,101237.78
2023-04-27T06:54:53.928Z,101228.69
2023-04-27T06:57:20.334Z,101233.19
2023-04-27T06:59:46.401Z,101231.84
2023-04-27T07:02:12.812Z,101234.09
2023-04-27T07:04:39.467Z,101232.69
2023-04-27T07:07:05.896Z,101233.97
2023-04-27T07:09:32.586Z,101228.97
2023-04-27T07:12:00.549Z,101237.94
2023-04-27T07:14:26.857Z,101232.38
2023-04-27T07:16:53.337Z,101242.41
2023-04-27T07:19:19.546Z,101243.00
2023-04-27T07:21:45.932Z,101247.25
2023-04-27T07:24:12.031Z,101251.25
2023-04-27T07:26:38.847Z,101246.44
2023-04-27T07:29:14.448Z,101245.81
2023-04-27T07:31:51.380Z,101243.88
2023-04-27T07:34:18.439Z,101247.72
2023-04-27T07:36:45.022Z,101243.84
2023-04-27T07:39:11.628Z,101255.69
2023-04-27T07:41:38.495Z,101248.41
2023-04-27T07:44:04.729Z,101254.56
2023-04-27T07:46:32.115Z,101247.41
2023-04-27T07:48:59.947Z,101247.84
2023-04-27T07:51:27.911Z,101244.38
2023-04-27T07:53:54.577Z,101252.56
2023-04-27T07:56:21.267Z,101254.41
2023-04-27T07:58:47.412Z,101255.81
2023-04-27T08:01:13.796Z,101257.94
2023-04-27T08:03:40.209Z,101245.38
2023-04-27T08:06:07.522Z,101243.78
2023-04-27T08:08:33.787Z,101241.97
2023-04-27T08:11:00.171Z,101249.28
2023-04-27T08:13:26.532Z,101253.97
2023-04-27T08:15:57.595Z,101249.81
2023-04-27T08:18:24.875Z,101253.75
2023-04-27T08:20:51.808Z,101250.78
2023-04-27T08:23:18.090Z,101254.50
2023-04-27T08:25:44.400Z,101250.16
2023-04-27T08:28:10.588Z,101244.91
2023-04-27T08:30:37.006Z,101250.84
2023-04-27T08:33:03.239Z,101254.09
2023-04-27T08:35:29.663Z,101253.16
2023-04-27T08:37:56.059Z,101255.41
2023-04-27T08:40:24.110Z,101256.69
2023-04-27T08:42:55.676Z,101254.69
2023-04-27T08:45:23.556Z,101257.25
2023-04-27T08:47:49.944Z,101250.81
2023-04-27T08:50:16.797Z,101253.63
2023-04-27T08:52:48.188Z,101255.53
2023-04-27T08:55:16.645Z,101254.81
2023-04-27T08:57:53.905Z,101251.22
2023-04-27T09:00:20.581Z,101244.38
2023-04-27T09:02:47.666Z,101246.84
2023-04-27T09:05:16.012Z,101256.03
2023-04-27T09:07:42.176Z,101246.50
2023-04-27T09:10:08.988Z,101245.31
2023-04-27T09:12:35.145Z,101255.38
2023-04-27T09:15:04.478Z,101245.97
2023-04-27T09:17:30.817Z,101237.94
2023-04-27T09:20:08.243Z,101237.25
2023-04-27T09:23:01.993Z,101238.31
2023-04-27T09:25:30.693Z,101243.41
2023-04-27T09:27:58.478Z,101248.63
2023-04-27T09:30:26.148Z,101241.78
2023-04-27T09:32:55.287Z,101250.88
2023-04-27T09:35:24.459Z,101242.56
2023-04-27T09:37:52.149Z,101234.03
2023-04-27T09:40:27.294Z,101227.34
2023-04-27T09:42:54.707Z,101234.19
2023-04-27T09:45:22.954Z,101238.97
2023-04-27T09:47:49.069Z,101240.47
2023-04-27T09:50:15.583Z,101235.47
2023-04-27T09:52:42.052Z,101244.69
2023-04-27T09:55:13.253Z,101239.66
2023-04-27T09:57:50.815Z,101244.66
2023-04-27T10:00:29.622Z,101238.00
2023-04-27T10:03:14.644Z,101238.94
2023-04-27T10:06:18.663Z,101233.22
2023-04-27T10:08:45.159Z,101246.13
2023-04-27T10:11:16.760Z,101250.13
2023-04-27T10:13:54.347Z,101251.22
2023-04-27T10:16:21.885Z,101246.94
2023-04-27T10:18:55.465Z,101243.25
2023-04-27T10:21:23.055Z,101241.66
2023-04-27T10:23:51.039Z,101247.47
2023-04-27T10:26:26.944Z,101250.31
2023-04-27T10:29:08.004Z,101248.13
2023-04-27T10:31:35.141Z,101251.91
2023-04-27T10:34:09.297Z,101257.06
2023-04-27T10:36:40.149Z,101257.69
2023-04-27T10:39:24.059Z,101262.44
2023-04-27T10:41:56.386Z,101261.34
2023-04-27T10:44:30.315Z,101265.63
2023-04-27T10:46:59.885Z,101262.56
2023-04-27T10:49:29.908Z,101262.31
2023-04-27T10:51:58.566Z,101252.09
2023-04-27T10:54:27.674Z,101259.94
2023-04-27T10:57:01.349Z,101260.28
2023-04-27T10:59:27.456Z,101265.06
2023-04-27T11:01:53.832Z,101260.69
2023-04-27T11:04:19.978Z,101267.22
2023-04-27T11:06:46.444Z,101273.41
2023-04-27T11:09:26.764Z,101263.75
2023-04-27T11:11:53.396Z,101265.72
2023-04-27T11:14:20.730Z,101260.91
2023-04-27T11:16:48.079Z,101256.13
2023-04-27T11:19:14.719Z,101250.88
2023-04-27T11:21:41.654Z,101254.66
2023-04-27T11:24:09.252Z,101252.97
2023-04-27T11:26:35.975Z,101241.88
2023-04-27T11:29:11.747Z,101247.97
2023-04-27T11:31:50.548Z,101249.31
2023-04-27T11:34:20.511Z,101260.53
2023-04-27T11:37:16.833Z,101264.31
2023-04-27T11:39:45.152Z,101269.59
2023-04-27T11:42:18.914Z,101276.41
2023-04-27T11:45:12.251Z,101268.94
2023-04-27T11:47:41.657Z,101276.72
2023-04-27T11:50:08.155Z,101279.06
2023-04-27T11:52:36.679Z,101275.16
2023-04-27T11:55:03.914Z,101276.75
2023-04-27T11:57:32.304Z,101279.97
2023-04-27T12:00:01.562Z,101282.88
2023-04-27T12:02:30.435Z,101279.06
2023-04-27T12:04:58.716Z,101280.59
2023-04-27T12:07:25.385Z,101278.81
2023-04-27T12:09:51.662Z,101270.56
2023-04-27T12:12:21.295Z,101275.09
2023-04-27T12:14:51.320Z,101278.84
2023-04-27T12:17:18.071Z,101271.28
2023-04-27T12:19:44.314Z,101266.41
2023-04-27T12:22:11.230Z,101266.47
2023-04-27T12:24:37.464Z,101261.16
2023-04-27T12:27:04.504Z,101258.44
2023-04-27T12:29:33.871Z,101265.63
2023-04-27T12:32:00.276Z,101265.53
2023-04-27T12:34:27.567Z,101256.34
2023-04-27T12:36:55.196Z,101260.72
2023-04-27T12:39:26.019Z,101266.41
2023-04-27T12:41:53.401Z,101258.78
2023-04-27T12:44:20.612Z,101267.53
2023-04-27T12:46:50.186Z,101261.66
2023-04-27T12:49:16.852Z,101266.34
2023-04-27T12:51:44.831Z,101270.31
2023-04-27T12:54:12.401Z,101271.03
2023-04-27T12:56:39.388Z,101278.56
2023-04-27T12:59:05.600Z,101274.06
2023-04-27T13:01:32.574Z,101285.91
2023-04-27T13:04:01.108Z,101279.63
2023-04-27T13:06:27.941Z,101286.66
2023-04-27T13:08:54.150Z,101286.13
2023-04-27T13:11:20.584Z,101289.69
2023-04-27T13:13:47.254Z,101284.72
2023-04-27T13:16:15.180Z,101288.75
2023-04-27T13:18:46.688Z,101288.28
2023-04-27T13:21:13.884Z,101283.81
2023-04-27T13:23:41.421Z,101285.00
2023-04-27T13:26:08.193Z,101283.75
2023-04-27T13:28:34.410Z,101283.94
2023-04-27T13:31:01.110Z,101288.13
2023-04-27T13:33:27.515Z,101291.94
2023-04-27T13:35:54.164Z,101296.22
2023-04-27T13:38:20.688Z,101298.59
2023-04-27T13:40:47.149Z,101297.09
2023-04-27T13:43:13.442Z,101296.00
2023-04-27T13:45:41.725Z,101296.84
2023-04-27T13:48:07.871Z,101299.63
2023-04-27T13:50:34.413Z,101289.72
2023-04-27T13:53:01.131Z,101296.53
2023-04-27T13:55:28.046Z,101286.94
2023-04-27T13:57:54.272Z,101291.88
2023-04-27T14:00:21.065Z,101293.41
2023-04-27T14:02:47.239Z,101293.78
2023-04-27T14:05:13.784Z,101293.78
2023-04-27T14:07:40.091Z,101298.50
2023-04-27T14:10:07.228Z,101294.88
2023-04-27T14:12:33.438Z,101292.03
2023-04-27T14:15:00.052Z,101284.03
2023-04-27T14:17:26.326Z,101292.69
2023-04-27T14:19:52.784Z,101298.53
2023-04-27T14:22:19.100Z,101295.88
2023-04-27T14:24:45.861Z,101293.88
2023-04-27T14:27:12.148Z,101294.03
2023-04-27T14:29:38.813Z,101299.19
2023-04-27T14:32:05.611Z,101294.22
2023-04-27T14:34:32.155Z,101300.81
2023-04-27T14:36:58.912Z,101305.56
2023-04-27T14:39:27.456Z,101297.75
2023-04-27T14:41:53.854Z,101300.31
2023-04-27T14:44:20.489Z,101311.75
2023-04-27T14:46:46.704Z,101309.91
2023-04-27T14:49:13.368Z,101309.88
2023-04-27T14:51:41.464Z,101310.59
2023-04-27T14:54:09.326Z,101312.25
2023-04-27T14:56:35.990Z,101312.75
2023-04-27T14:59:02.603Z,101317.91
2023-04-27T15:01:28.823Z,101309.63
2023-04-27T15:03:55.977Z,101309.19
2023-04-27T15:06:23.502Z,101305.63
2023-04-27T15:08:50.042Z,101309.19
2023-04-27T15:11:16.369Z,101309.22
2023-04-27T15:13:43.958Z,101316.69
2023-04-27T15:16:10.335Z,101309.63
2023-04-27T15:18:37.097Z,101312.81
2023-04-27T15:21:03.694Z,101309.28
2023-04-27T15:23:30.221Z,101314.94
2023-04-27T15:25:57.855Z,101317.66
2023-04-27T15:28:24.660Z,101315.75
2023-04-27T15:30:50.942Z,101326.47
2023-04-27T15:33:18.245Z,101319.41
2023-04-27T15:35:44.450Z,101319.09
2023-04-27T15:38:12.658Z,101325.00
2023-04-27T15:40:39.327Z,101314.03
2023-04-27T15:43:06.161Z,101311.78
2023-04-27T15:45:32.524Z,101313.72
2023-04-27T15:47:58.937Z,101317.59
2023-04-27T15:50:25.353Z,101312.00
2023-04-27T15:52:52.197Z,101318.00
2023-04-27T15:55:18.493Z,101306.41
2023-04-27T15:57:45.058Z,101310.00
2023-04-27T16:00:11.940Z,101311.00
2023-04-27T16:02:39.698Z,101314.25
2023-04-27T16:05:08.105Z,101314.88
2023-04-27T16:07:36.228Z,101314.94
2023-04-27T16:10:03.440Z,101311.44
2023-04-27T16:12:31.155Z,101313.50
2023-04-27T16:14:57.345Z,101312.06
2023-04-27T16:17:26.082Z,101308.44
2023-04-27T16:19:52.823Z,101311.16
2023-04-27T16:22:19.373Z,101308.28
2023-04-27T16:24:45.536Z,101305.75
2023-04-27T16:27:11.969Z,101302.03
2023-04-27T16:29:38.796Z,101304.75
2023-04-27T16:32:05.947Z,101300.53
2023-04-27T16:34:32.394Z,101294.97
2023-04-27T16:36:58.896Z,101298.31
2023-04-27T16:39:25.024Z,101304.78
2023-04-27T16:41:51.787Z,101307.03
2023-04-27T16:44:18.148Z,101298.06
2023-04-27T16:46:44.830Z,101304.97
2023-04-27T16:49:11.034Z,101303.09
2023-04-27T16:51:37.501Z,101301.94
2023-04-27T16:54:03.870Z,101301.53
2023-04-27T16:56:32.904Z,101316.09
2023-04-27T16:58:59.428Z,101306.53
2023-04-27T17:01:28.872Z,101307.84
2023-04-27T17:03:56.591Z,101313.53
2023-04-27T17:06:27.528Z,101316.13
2023-04-27T17:08:55.428Z,101310.25
2023-04-27T17:11:22.167Z,101321.66
2023-04-27T17:13:51.632Z,101321.66
2023-04-27T17:16:18.925Z,101314.09
2023-04-27T17:18:48.233Z,101318.53
2023-04-27T17:21:16.364Z,101317.13
2023-04-27T17:23:44.071Z,101319.56
2023-04-27T17:26:11.344Z,101305.97
2023-04-27T17:28:37.735Z,101311.41
2023-04-27T17:31:04.224Z,101304.84
2023-04-27T17:33:30.629Z,101309.56
2023-04-27T17:35:57.253Z,101309.84
2023-04-27T17:38:23.522Z,101312.94
2023-04-27T17:40:49.940Z,101306.81
2023-04-27T17:43:16.127Z,101306.13
2023-04-27T17:45:42.753Z,101313.81
2023-04-27T17:48:09.064Z,101310.91
2023-04-27T17:50:37.163Z,101306.31
2023-04-27T17:53:03.461Z,101304.72
2023-04-27T17:55:30.558Z,101314.13
2023-04-27T17:57:57.000Z,101319.50
2023-04-27T18:00:23.538Z,101329.75
2023-04-27T18:02:50.295Z,101320.72
2023-04-27T18:05:16.990Z,101330.50
2023-04-27T18:07:45.378Z,101329.03
2023-04-27T18:10:12.065Z,101320.78
2023-04-27T18:12:38.315Z,101338.81
2023-04-27T18:15:07.667Z,101337.88
2023-04-27T18:17:35.870Z,101335.34
2023-04-27T18:20:08.733Z,101333.63
2023-04-27T18:22:37.762Z,101337.13
2023-04-27T18:25:04.711Z,101331.97
2023-04-27T18:27:32.081Z,101327.06
2023-04-27T18:29:58.501Z,101335.66
2023-04-27T18:32:25.012Z,101334.59
2023-04-27T18:34:51.554Z,101339.56
2023-04-27T18:37:17.709Z,101338.72
2023-04-27T18:39:44.283Z,101339.22
2023-04-27T18:42:10.635Z,101346.09
2023-04-27T18:44:37.222Z,101346.34
2023-04-27T18:47:03.934Z,101351.25
2023-04-27T18:49:31.420Z,101349.28
2023-04-27T18:51:58.100Z,101357.63
2023-04-27T18:54:24.536Z,101365.00
2023-04-27T18:56:53.026Z,101358.97
2023-04-27T18:59:19.825Z,101362.03
2023-04-27T19:01:46.103Z,101368.91
2023-04-27T19:04:13.944Z,101369.41
2023-04-27T19:06:40.606Z,101370.97
2023-04-27T19:09:08.555Z,101376.09
2023-04-27T19:11:35.597Z,101376.69
2023-04-27T19:14:02.220Z,101368.44
2023-04-27T19:16:28.463Z,101371.72
2023-04-27T19:18:55.429Z,101376.59
2023-04-27T19:21:21.765Z,101374.38
2023-04-27T19:23:48.481Z,101372.50
2023-04-27T19:26:14.898Z,101382.66
2023-04-27T19:28:41.665Z,101374.03
2023-04-27T19:31:08.265Z,101375.38
2023-04-27T19:33:35.257Z,101377.66
2023-04-27T19:36:01.511Z,101380.28
2023-04-27T19:38:28.868Z,101379.78
2023-04-27T19:40:55.363Z,101377.72
2023-04-27T19:43:22.055Z,101386.53
2023-04-27T19:45:48.285Z,101382.19
2023-04-27T19:48:15.048Z,101380.19
2023-04-27T19:50:41.894Z,101378.56
2023-04-27T19:53:08.906Z,101379.75
2023-04-27T19:55:35.259Z,101379.25
2023-04-27T19:58:02.193Z,101381.00
2023-04-27T20:00:28.748Z,101382.28
2023-04-27T20:02:55.919Z,101393.72
2023-04-27T20:05:22.893Z,101388.34
2023-04-27T20:07:49.837Z,101394.00
2023-04-27T20:10:16.567Z,101385.53
2023-04-27T20:12:55.493Z,101390.50
2023-04-27T20:15:23.088Z,101392.09
2023-04-27T20:17:49.894Z,101397.06
2023-04-27T20:20:16.395Z,101388.88
2023-04-27T20:22:43.165Z,101394.47
2023-04-27T20:25:10.037Z,101398.78
2023-04-27T20:27:36.753Z,101405.69
2023-04-27T20:30:03.732Z,101392.44
2023-04-27T20:32:30.536Z,101399.00
2023-04-27T20:34:57.269Z,101405.78
2023-04-27T20:37:25.126Z,101393.38
2023-04-27T20:39:52.674Z,101396.84
2023-04-27T20:42:20.220Z,101386.06
2023-04-27T20:44:47.781Z,101395.63
2023-04-27T20:47:14.300Z,101386.38
2023-04-27T20:49:41.264Z,101384.81
2023-04-27T20:52:08.160Z,101383.84
2023-04-27T20:54:35.603Z,101387.34
2023-04-27T20:57:03.074Z,101386.97
2023-04-27T20:59:29.518Z,101389.19
2023-04-27T21:01:56.370Z,101387.88
2023-04-27T21:04:22.976Z,101383.38
2023-04-27T21:06:49.850Z,101377.53
2023-04-27T21:09:16.476Z,101383.78
2023-04-27T21:11:43.048Z,101388.28
2023-04-27T21:14:09.880Z,101383.63
2023-04-27T21:16:36.641Z,101384.50
2023-04-27T21:19:02.764Z,101381.53
2023-04-27T21:21:29.178Z,101376.56
2023-04-27T21:24:06.723Z,101385.59
2023-04-27T21:26:34.056Z,101385.13
2023-04-27T21:29:04.610Z,101388.75
2023-04-27T21:31:32.205Z,101388.75
2023-04-27T21:33:58.401Z,101389.59
2023-04-27T21:36:24.960Z,101394.03
2023-04-27T21:38:51.162Z,101390.66
2023-04-27T21:41:17.589Z,101392.88
2023-04-27T21:43:44.324Z,101394.03
2023-04-27T21:46:10.836Z,101391.84
2023-04-27T21:48:37.027Z,101394.72
2023-04-27T21:51:03.430Z,101394.16
2023-04-27T21:53:29.884Z,101390.50
2023-04-27T21:55:56.490Z,101394.25
2023-04-27T21:58:22.580Z,101395.41
2023-04-27T22:00:48.963Z,101398.97
2023-04-27T22:03:15.532Z,101388.22
2023-04-27T22:05:42.060Z,101398.38
2023-04-27T22:08:08.317Z,101390.53
2023-04-27T22:10:34.713Z,101387.16
2023-04-27T22:13:08.305Z,101392.25
2023-04-27T22:15:43.954Z,101384.69
2023-04-27T22:18:10.077Z,101386.03
2023-04-27T22:20:36.521Z,101382.56
2023-04-27T22:23:02.751Z,101385.72
2023-04-27T22:25:29.183Z,101387.34
2023-04-27T22:27:55.205Z,101378.63
2023-04-27T22:30:21.834Z,101384.69
2023-04-27T22:32:48.027Z,101387.66
2023-04-27T22:35:24.827Z,101384.56
2023-04-27T22:37:56.360Z,101391.56
2023-04-27T22:40:22.857Z,101385.25
2023-04-27T22:42:49.035Z,101394.81
2023-04-27T22:45:15.603Z,101379.41
2023-04-27T22:47:43.781Z,101384.97
2023-04-27T22:50:11.262Z,101378.44
2023-04-27T22:52:38.073Z,101384.19
2023-04-27T22:55:04.669Z,101389.38
2023-04-27T22:57:30.777Z,101377.97
2023-04-27T22:59:57.102Z,101379.22
2023-04-27T23:02:23.534Z,101375.94
2023-04-27T23:04:50.275Z,101379.50
2023-04-27T23:07:19.033Z,101372.78
2023-04-27T23:09:47.371Z,101386.28
2023-04-27T23:12:13.394Z,101386.09
2023-04-27T23:14:41.464Z,101380.50
2023-04-27T23:17:08.246Z,101380.75
2023-04-27T23:19:34.889Z,101375.06
2023-04-27T23:22:01.986Z,101370.38
2023-04-27T23:24:29.038Z,101374.00
2023-04-27T23:26:55.122Z,101381.59
2023-04-27T23:29:21.468Z,101379.19
2023-04-27T23:31:47.545Z,101378.78
2023-04-27T23:34:14.902Z,101377.56
2023-04-27T23:36:41.413Z,101379.88
2023-04-27T23:39:07.768Z,101370.38
2023-04-27T23:41:33.817Z,101381.69
2023-04-27T23:44:00.255Z,101376.03
2023-04-27T23:46:26.364Z,101367.44
2023-04-27T23:48:52.753Z,101364.94
2023-04-27T23:51:18.955Z,101369.63
2023-04-27T23:53:45.263Z,101374.22
2023-04-27T23:56:18.946Z,101378.16
2023-04-27T23:58:45.475Z,101386.28
